AFR1049 LWSK-LFKJ
Flight info
| Callsign | AFR1049 |
|---|---|
| Flight time | 1h 49m |
| Altitude | 38000 |
| Route | GOSTI DCT ENFAR DCT PETAK DCT PINUK DCT AIOSA/N0445F390 DCT VIE DCT URIPI DCT SUXUB DCT INSOX DCT OST DCT RAVAL DCT GISPA DCT MAMAR DCT IBROS DCT ASKAG |
| Aircraft | A319/M-SDE3FGHIRWY/LB1 |
Departure
| Time | 2026-05-06 10:17 |
|---|---|
| Airport | Skopje International Airport (LWSK) |
Arrival
| Time | 2026-05-06 12:06 |
|---|---|
| Airport | Ajaccio Napoléon Bonaparte airport (LFKJ) |
| Time | Latitude | Longitude | Altitude | Speed | Heading |
|---|---|---|---|---|---|
| 2026-05-06 10:02 | 41.96070 | 21.62600 | 786 ft | 0 kts | 75° |
| 2026-05-06 10:06 | 41.96069 | 21.62591 | 786 ft | 2 kts | 75° |
| 2026-05-06 10:06 | 41.96066 | 21.62578 | 786 ft | 2 kts | 73° |
| 2026-05-06 10:06 | 41.96059 | 21.62561 | 786 ft | 2 kts | 46° |
| 2026-05-06 10:07 | 41.96047 | 21.62549 | 786 ft | 2 kts | 24° |
| 2026-05-06 10:07 | 41.96032 | 21.62543 | 786 ft | 2 kts | 3° |
| 2026-05-06 10:07 | 41.96022 | 21.62544 | 786 ft | 0 kts | 348° |
| 2026-05-06 10:07 | 41.96015 | 21.62546 | 787 ft | 0 kts | 345° |
| 2026-05-06 10:09 | 41.96016 | 21.62546 | 787 ft | 0 kts | 345° |
| 2026-05-06 10:10 | 41.96022 | 21.62543 | 787 ft | 2 kts | 345° |
| 2026-05-06 10:10 | 41.96046 | 21.62534 | 786 ft | 4 kts | 343° |
| 2026-05-06 10:10 | 41.96086 | 21.62521 | 787 ft | 7 kts | 347° |
| 2026-05-06 10:10 | 41.96127 | 21.62475 | 787 ft | 9 kts | 280° |
| 2026-05-06 10:11 | 41.96176 | 21.62407 | 787 ft | 12 kts | 338° |
| 2026-05-06 10:11 | 41.96263 | 21.62374 | 787 ft | 14 kts | 346° |
| 2026-05-06 10:11 | 41.96363 | 21.62340 | 787 ft | 15 kts | 346° |
| 2026-05-06 10:11 | 41.96477 | 21.62300 | 787 ft | 17 kts | 345° |
| 2026-05-06 10:12 | 41.96598 | 21.62258 | 786 ft | 18 kts | 347° |
| 2026-05-06 10:12 | 41.96730 | 21.62215 | 786 ft | 20 kts | 345° |
| 2026-05-06 10:12 | 41.96869 | 21.62168 | 787 ft | 20 kts | 343° |
| 2026-05-06 10:12 | 41.96998 | 21.62132 | 796 ft | 14 kts | 353° |
| 2026-05-06 10:13 | 41.97087 | 21.62107 | 800 ft | 13 kts | 340° |
| 2026-05-06 10:13 | 41.97146 | 21.62120 | 805 ft | 7 kts | 113° |
| 2026-05-06 10:13 | 41.97111 | 21.62138 | 804 ft | 0 kts | 173° |
| 2026-05-06 10:14 | 41.97088 | 21.62142 | 803 ft | 5 kts | 169° |
| 2026-05-06 10:14 | 41.97038 | 21.62155 | 802 ft | 8 kts | 174° |
| 2026-05-06 10:15 | 41.96952 | 21.62134 | 790 ft | 14 kts | 201° |
| 2026-05-06 10:15 | 41.96936 | 21.62069 | 787 ft | 5 kts | 299° |
| 2026-05-06 10:15 | 41.96969 | 21.62009 | 785 ft | 9 kts | 307° |
| 2026-05-06 10:15 | 41.97007 | 21.61907 | 785 ft | 13 kts | 260° |
| 2026-05-06 10:16 | 41.96922 | 21.61880 | 785 ft | 14 kts | 167° |
| 2026-05-06 10:16 | 41.96690 | 21.61964 | 785 ft | 69 kts | 165° |
| 2026-05-06 10:16 | 41.95985 | 21.62213 | 785 ft | 136 kts | 166° |
| 2026-05-06 10:16 | 41.94929 | 21.62569 | 1028 ft | 166 kts | 165° |
| 2026-05-06 10:17 | 41.93821 | 21.62950 | 1696 ft | 168 kts | 165° |
| 2026-05-06 10:17 | 41.92718 | 21.63330 | 2445 ft | 166 kts | 165° |
| 2026-05-06 10:17 | 41.91577 | 21.63725 | 3014 ft | 178 kts | 165° |
| 2026-05-06 10:17 | 41.90328 | 21.64159 | 3510 ft | 195 kts | 165° |
| 2026-05-06 10:18 | 41.88930 | 21.64646 | 3994 ft | 217 kts | 165° |
| 2026-05-06 10:18 | 41.87427 | 21.65169 | 4564 ft | 235 kts | 165° |
| 2026-05-06 10:18 | 41.85780 | 21.65740 | 5140 ft | 253 kts | 165° |
| 2026-05-06 10:18 | 41.84018 | 21.66350 | 5778 ft | 268 kts | 166° |
| 2026-05-06 10:19 | 41.82220 | 21.66973 | 6649 ft | 273 kts | 166° |
| 2026-05-06 10:19 | 41.80425 | 21.67763 | 7531 ft | 277 kts | 153° |
| 2026-05-06 10:19 | 41.78933 | 21.69390 | 8381 ft | 282 kts | 129° |
| 2026-05-06 10:19 | 41.78029 | 21.71714 | 9206 ft | 289 kts | 106° |
| 2026-05-06 10:20 | 41.77882 | 21.74352 | 9999 ft | 294 kts | 82° |
| 2026-05-06 10:20 | 41.78560 | 21.76955 | 10673 ft | 304 kts | 58° |
| 2026-05-06 10:20 | 41.80064 | 21.79028 | 11099 ft | 321 kts | 31° |
| 2026-05-06 10:20 | 41.82194 | 21.80027 | 11563 ft | 333 kts | 4° |
| 2026-05-06 10:21 | 41.84467 | 21.79610 | 12299 ft | 334 kts | 337° |
| 2026-05-06 10:21 | 41.86337 | 21.77883 | 13118 ft | 333 kts | 311° |
| 2026-05-06 10:21 | 41.87634 | 21.75314 | 13936 ft | 334 kts | 302° |
| 2026-05-06 10:21 | 41.88859 | 21.72701 | 14677 ft | 337 kts | 303° |
| 2026-05-06 10:22 | 41.90136 | 21.70038 | 15403 ft | 341 kts | 303° |
| 2026-05-06 10:22 | 41.91411 | 21.67399 | 16109 ft | 344 kts | 303° |
| 2026-05-06 10:22 | 41.92553 | 21.64577 | 16766 ft | 348 kts | 289° |
| 2026-05-06 10:22 | 41.92902 | 21.61368 | 17441 ft | 352 kts | 269° |
| 2026-05-06 10:23 | 41.92408 | 21.58138 | 18137 ft | 356 kts | 255° |
| 2026-05-06 10:23 | 41.91648 | 21.54967 | 18794 ft | 359 kts | 255° |
| 2026-05-06 10:23 | 41.90887 | 21.51793 | 19401 ft | 362 kts | 255° |
| 2026-05-06 10:23 | 41.90123 | 21.48589 | 20009 ft | 365 kts | 255° |
| 2026-05-06 10:24 | 41.89357 | 21.45360 | 20616 ft | 367 kts | 255° |
| 2026-05-06 10:24 | 41.88580 | 21.42073 | 21205 ft | 369 kts | 256° |
| 2026-05-06 10:24 | 41.87810 | 21.38809 | 21772 ft | 372 kts | 256° |
| 2026-05-06 10:24 | 41.87032 | 21.35518 | 22325 ft | 375 kts | 256° |
| 2026-05-06 10:25 | 41.86236 | 21.32156 | 22870 ft | 377 kts | 255° |
| 2026-05-06 10:25 | 41.85436 | 21.28779 | 23418 ft | 380 kts | 255° |
| 2026-05-06 10:25 | 41.84642 | 21.25425 | 23954 ft | 382 kts | 255° |
| 2026-05-06 10:25 | 41.83831 | 21.22013 | 24489 ft | 385 kts | 255° |
| 2026-05-06 10:26 | 41.83026 | 21.18625 | 24979 ft | 387 kts | 255° |
| 2026-05-06 10:26 | 41.82210 | 21.15167 | 25448 ft | 390 kts | 256° |
| 2026-05-06 10:26 | 41.81530 | 21.11682 | 25915 ft | 391 kts | 260° |
| 2026-05-06 10:26 | 41.81025 | 21.08072 | 26375 ft | 392 kts | 264° |
| 2026-05-06 10:27 | 41.80703 | 21.04449 | 26815 ft | 393 kts | 266° |
| 2026-05-06 10:27 | 41.80436 | 21.00854 | 27230 ft | 396 kts | 266° |
| 2026-05-06 10:27 | 41.80166 | 20.97155 | 27652 ft | 398 kts | 266° |
| 2026-05-06 10:27 | 41.79896 | 20.93467 | 28077 ft | 400 kts | 266° |
| 2026-05-06 10:28 | 41.79625 | 20.89785 | 28488 ft | 402 kts | 266° |
| 2026-05-06 10:28 | 41.79348 | 20.86052 | 28889 ft | 404 kts | 266° |
| 2026-05-06 10:28 | 41.79068 | 20.82310 | 29242 ft | 407 kts | 266° |
| 2026-05-06 10:28 | 41.78785 | 20.78537 | 29598 ft | 409 kts | 266° |
| 2026-05-06 10:29 | 41.78498 | 20.74744 | 29983 ft | 411 kts | 266° |
| 2026-05-06 10:29 | 41.78209 | 20.70945 | 30328 ft | 413 kts | 266° |
| 2026-05-06 10:29 | 41.77917 | 20.67104 | 30678 ft | 415 kts | 266° |
| 2026-05-06 10:29 | 41.77622 | 20.63254 | 31031 ft | 417 kts | 266° |
| 2026-05-06 10:30 | 41.77322 | 20.59358 | 31387 ft | 419 kts | 266° |
| 2026-05-06 10:30 | 41.77051 | 20.55480 | 31850 ft | 417 kts | 268° |
| 2026-05-06 10:30 | 41.76923 | 20.51672 | 32332 ft | 414 kts | 270° |
| 2026-05-06 10:30 | 41.76929 | 20.47829 | 32797 ft | 412 kts | 272° |
| 2026-05-06 10:31 | 41.76966 | 20.44036 | 33235 ft | 410 kts | 272° |
| 2026-05-06 10:31 | 41.77004 | 20.40200 | 33656 ft | 409 kts | 272° |
| 2026-05-06 10:31 | 41.77042 | 20.36422 | 34059 ft | 408 kts | 272° |
| 2026-05-06 10:31 | 41.77077 | 20.32582 | 34475 ft | 406 kts | 271° |
| 2026-05-06 10:32 | 41.77110 | 20.28840 | 34896 ft | 405 kts | 271° |
| 2026-05-06 10:32 | 41.77141 | 20.25105 | 35274 ft | 404 kts | 271° |
| 2026-05-06 10:32 | 41.77171 | 20.21314 | 35626 ft | 403 kts | 271° |
| 2026-05-06 10:32 | 41.77200 | 20.17617 | 35959 ft | 402 kts | 271° |
| 2026-05-06 10:33 | 41.77228 | 20.13825 | 36279 ft | 402 kts | 271° |
| 2026-05-06 10:33 | 41.77254 | 20.10115 | 36580 ft | 401 kts | 271° |
| 2026-05-06 10:33 | 41.77280 | 20.06377 | 36807 ft | 402 kts | 271° |
| 2026-05-06 10:33 | 41.77305 | 20.02610 | 37011 ft | 403 kts | 271° |
| 2026-05-06 10:34 | 41.77328 | 19.98878 | 37196 ft | 404 kts | 271° |
| 2026-05-06 10:34 | 41.77350 | 19.95148 | 37371 ft | 405 kts | 271° |
| 2026-05-06 10:34 | 41.77370 | 19.91355 | 37540 ft | 405 kts | 271° |
| 2026-05-06 10:34 | 41.77390 | 19.87606 | 37702 ft | 406 kts | 271° |
| 2026-05-06 10:35 | 41.77409 | 19.83851 | 37852 ft | 407 kts | 271° |
| 2026-05-06 10:35 | 41.77425 | 19.80051 | 37981 ft | 408 kts | 271° |
| 2026-05-06 10:35 | 41.77442 | 19.76246 | 37808 ft | 409 kts | 271° |
| 2026-05-06 10:35 | 41.77457 | 19.72454 | 37915 ft | 411 kts | 271° |
| 2026-05-06 10:36 | 41.77470 | 19.68638 | 38039 ft | 412 kts | 271° |
| 2026-05-06 10:36 | 41.77482 | 19.64838 | 38194 ft | 412 kts | 270° |
| 2026-05-06 10:36 | 41.77501 | 19.57186 | 38077 ft | 412 kts | 271° |
| 2026-05-06 10:37 | 41.77517 | 19.49516 | 38053 ft | 411 kts | 270° |
| 2026-05-06 10:37 | 41.77525 | 19.41867 | 38051 ft | 411 kts | 270° |
| 2026-05-06 10:38 | 41.77591 | 19.34261 | 37805 ft | 411 kts | 272° |
| 2026-05-06 10:38 | 41.77800 | 19.30452 | 37984 ft | 411 kts | 275° |
| 2026-05-06 10:38 | 41.78155 | 19.26658 | 38030 ft | 412 kts | 278° |
| 2026-05-06 10:39 | 41.79099 | 19.19108 | 38231 ft | 413 kts | 279° |
| 2026-05-06 10:39 | 41.79578 | 19.15342 | 38106 ft | 412 kts | 279° |
| 2026-05-06 10:39 | 41.80054 | 19.11577 | 38069 ft | 413 kts | 278° |
| 2026-05-06 10:40 | 41.81009 | 19.03999 | 38056 ft | 413 kts | 278° |
| 2026-05-06 10:40 | 41.81959 | 18.96414 | 38055 ft | 413 kts | 278° |
| 2026-05-06 10:41 | 41.82430 | 18.92628 | 37777 ft | 413 kts | 278° |
| 2026-05-06 10:41 | 41.82900 | 18.88847 | 37961 ft | 413 kts | 278° |
| 2026-05-06 10:41 | 41.83840 | 18.81242 | 38048 ft | 414 kts | 278° |
| 2026-05-06 10:42 | 41.84775 | 18.73651 | 38228 ft | 414 kts | 278° |
| 2026-05-06 10:42 | 41.85233 | 18.69906 | 38108 ft | 413 kts | 278° |
| 2026-05-06 10:42 | 41.85693 | 18.66127 | 38075 ft | 413 kts | 278° |
| 2026-05-06 10:43 | 41.86543 | 18.58525 | 38053 ft | 412 kts | 275° |
| 2026-05-06 10:43 | 41.86787 | 18.54694 | 37926 ft | 412 kts | 273° |
| 2026-05-06 10:44 | 41.87190 | 18.47050 | 38038 ft | 414 kts | 273° |
| 2026-05-06 10:44 | 41.87582 | 18.39386 | 38045 ft | 414 kts | 273° |
| 2026-05-06 10:45 | 41.87974 | 18.31660 | 38259 ft | 414 kts | 272° |
| 2026-05-06 10:45 | 41.88165 | 18.27849 | 38116 ft | 412 kts | 272° |
| 2026-05-06 10:45 | 41.88355 | 18.24030 | 38075 ft | 412 kts | 272° |
| 2026-05-06 10:46 | 41.88731 | 18.16389 | 37771 ft | 412 kts | 272° |
| 2026-05-06 10:46 | 41.88918 | 18.12554 | 37952 ft | 412 kts | 272° |
| 2026-05-06 10:46 | 41.89103 | 18.08721 | 38024 ft | 413 kts | 272° |
| 2026-05-06 10:47 | 41.89470 | 18.01060 | 38033 ft | 413 kts | 272° |
| 2026-05-06 10:47 | 41.89833 | 17.93396 | 38027 ft | 413 kts | 272° |
| 2026-05-06 10:47 | 41.90012 | 17.89554 | 38191 ft | 413 kts | 272° |
| 2026-05-06 10:48 | 41.90190 | 17.85726 | 38075 ft | 412 kts | 272° |
| 2026-05-06 10:48 | 41.90541 | 17.78059 | 38033 ft | 411 kts | 272° |
| 2026-05-06 10:49 | 41.90885 | 17.70455 | 37809 ft | 410 kts | 272° |
| 2026-05-06 10:49 | 41.91055 | 17.66643 | 37966 ft | 411 kts | 272° |
| 2026-05-06 10:49 | 41.91224 | 17.62824 | 37999 ft | 412 kts | 272° |
| 2026-05-06 10:50 | 41.91560 | 17.55166 | 38009 ft | 412 kts | 272° |
| 2026-05-06 10:50 | 41.91891 | 17.47492 | 38007 ft | 412 kts | 272° |
| 2026-05-06 10:51 | 41.92215 | 17.39860 | 38003 ft | 411 kts | 272° |
| 2026-05-06 10:51 | 41.92532 | 17.32221 | 38108 ft | 410 kts | 271° |
| 2026-05-06 10:52 | 41.92809 | 17.24600 | 37797 ft | 409 kts | 269° |
| 2026-05-06 10:52 | 41.92806 | 17.20800 | 37940 ft | 410 kts | 268° |
| 2026-05-06 10:52 | 41.92778 | 17.17004 | 37975 ft | 410 kts | 268° |
| 2026-05-06 10:53 | 41.92712 | 17.09386 | 37984 ft | 410 kts | 268° |
| 2026-05-06 10:53 | 41.92640 | 17.01747 | 37986 ft | 410 kts | 268° |
| 2026-05-06 10:54 | 41.92563 | 16.94071 | 37970 ft | 410 kts | 268° |
| 2026-05-06 10:54 | 41.92480 | 16.86455 | 37965 ft | 409 kts | 268° |
| 2026-05-06 10:54 | 41.92437 | 16.82661 | 37852 ft | 409 kts | 268° |
| 2026-05-06 10:55 | 41.92394 | 16.78870 | 37924 ft | 409 kts | 267° |
| 2026-05-06 10:55 | 41.92301 | 16.71244 | 37957 ft | 409 kts | 267° |
| 2026-05-06 10:56 | 41.92204 | 16.63615 | 37957 ft | 409 kts | 268° |
| 2026-05-06 10:56 | 41.92101 | 16.55997 | 37958 ft | 410 kts | 267° |
| 2026-05-06 10:57 | 41.91994 | 16.48377 | 37956 ft | 410 kts | 267° |
| 2026-05-06 10:57 | 41.91881 | 16.40770 | 37959 ft | 410 kts | 267° |
| 2026-05-06 10:58 | 41.91764 | 16.33142 | 37961 ft | 410 kts | 266° |
| 2026-05-06 10:58 | 41.91640 | 16.25489 | 37962 ft | 410 kts | 266° |
| 2026-05-06 10:59 | 41.91510 | 16.17853 | 37957 ft | 410 kts | 266° |
| 2026-05-06 10:59 | 41.91375 | 16.10177 | 37951 ft | 410 kts | 266° |
| 2026-05-06 11:00 | 41.91214 | 16.02532 | 37948 ft | 410 kts | 265° |
| 2026-05-06 11:00 | 41.90910 | 15.94954 | 37951 ft | 409 kts | 265° |
| 2026-05-06 11:01 | 41.90595 | 15.87366 | 37956 ft | 408 kts | 265° |
| 2026-05-06 11:01 | 41.90279 | 15.79717 | 37957 ft | 409 kts | 265° |
| 2026-05-06 11:02 | 41.89962 | 15.72124 | 37960 ft | 410 kts | 265° |
| 2026-05-06 11:02 | 41.89638 | 15.64462 | 37953 ft | 410 kts | 265° |
| 2026-05-06 11:03 | 41.89312 | 15.56865 | 37946 ft | 409 kts | 265° |
| 2026-05-06 11:03 | 41.88980 | 15.49259 | 37930 ft | 409 kts | 265° |
| 2026-05-06 11:04 | 41.88643 | 15.41649 | 37922 ft | 409 kts | 265° |
| 2026-05-06 11:04 | 41.88303 | 15.34070 | 37919 ft | 408 kts | 264° |
| 2026-05-06 11:05 | 41.87954 | 15.26472 | 37921 ft | 408 kts | 264° |
| 2026-05-06 11:05 | 41.87637 | 15.18914 | 37916 ft | 409 kts | 266° |
| 2026-05-06 11:06 | 41.87659 | 15.11305 | 37927 ft | 409 kts | 268° |
| 2026-05-06 11:06 | 41.87729 | 15.03702 | 37936 ft | 409 kts | 268° |
| 2026-05-06 11:07 | 41.87796 | 14.96055 | 37936 ft | 409 kts | 268° |
| 2026-05-06 11:07 | 41.87854 | 14.88400 | 37935 ft | 408 kts | 268° |
| 2026-05-06 11:08 | 41.87909 | 14.80806 | 37938 ft | 408 kts | 268° |
| 2026-05-06 11:08 | 41.87959 | 14.73179 | 37945 ft | 408 kts | 268° |
| 2026-05-06 11:09 | 41.88004 | 14.65598 | 37952 ft | 408 kts | 268° |
| 2026-05-06 11:09 | 41.88042 | 14.58021 | 37958 ft | 407 kts | 268° |
| 2026-05-06 11:10 | 41.88075 | 14.50445 | 37977 ft | 406 kts | 268° |
| 2026-05-06 11:10 | 41.88103 | 14.42860 | 37986 ft | 407 kts | 268° |
| 2026-05-06 11:11 | 41.88128 | 14.35301 | 37997 ft | 406 kts | 268° |
| 2026-05-06 11:11 | 41.88145 | 14.27694 | 38007 ft | 406 kts | 267° |
| 2026-05-06 11:12 | 41.88158 | 14.20182 | 38016 ft | 405 kts | 267° |
| 2026-05-06 11:12 | 41.88167 | 14.12658 | 38016 ft | 404 kts | 267° |
| 2026-05-06 11:13 | 41.87976 | 14.05150 | 38020 ft | 403 kts | 263° |
| 2026-05-06 11:13 | 41.87481 | 13.97629 | 38027 ft | 402 kts | 263° |
| 2026-05-06 11:14 | 41.86980 | 13.90177 | 38028 ft | 403 kts | 262° |
| 2026-05-06 11:14 | 41.86470 | 13.82693 | 38029 ft | 402 kts | 263° |
| 2026-05-06 11:15 | 41.85957 | 13.75233 | 38035 ft | 403 kts | 263° |
| 2026-05-06 11:15 | 41.85438 | 13.67770 | 38038 ft | 403 kts | 263° |
| 2026-05-06 11:16 | 41.84919 | 13.60333 | 38034 ft | 401 kts | 263° |
| 2026-05-06 11:16 | 41.84391 | 13.52882 | 38031 ft | 402 kts | 262° |
| 2026-05-06 11:17 | 41.83862 | 13.45486 | 38030 ft | 401 kts | 262° |
| 2026-05-06 11:17 | 41.83326 | 13.38049 | 38027 ft | 401 kts | 262° |
| 2026-05-06 11:18 | 41.82789 | 13.30674 | 38025 ft | 400 kts | 262° |
| 2026-05-06 11:18 | 41.82265 | 13.23249 | 38023 ft | 400 kts | 263° |
| 2026-05-06 11:19 | 41.82083 | 13.15804 | 38017 ft | 400 kts | 266° |
| 2026-05-06 11:19 | 41.81972 | 13.08340 | 38017 ft | 401 kts | 266° |
| 2026-05-06 11:20 | 41.81858 | 13.00903 | 38011 ft | 400 kts | 265° |
| 2026-05-06 11:20 | 41.81739 | 12.93493 | 38016 ft | 400 kts | 266° |
| 2026-05-06 11:21 | 41.81614 | 12.86062 | 38013 ft | 400 kts | 265° |
| 2026-05-06 11:21 | 41.81484 | 12.78571 | 38021 ft | 400 kts | 265° |
| 2026-05-06 11:22 | 41.81351 | 12.71162 | 38018 ft | 400 kts | 265° |
| 2026-05-06 11:22 | 41.81213 | 12.63729 | 38006 ft | 401 kts | 265° |
| 2026-05-06 11:23 | 41.81068 | 12.56236 | 38003 ft | 400 kts | 265° |
| 2026-05-06 11:23 | 41.80917 | 12.48801 | 37998 ft | 399 kts | 265° |
| 2026-05-06 11:24 | 41.80765 | 12.41421 | 37991 ft | 399 kts | 265° |
| 2026-05-06 11:24 | 41.80605 | 12.33935 | 37992 ft | 399 kts | 264° |
| 2026-05-06 11:25 | 41.80441 | 12.26502 | 37988 ft | 399 kts | 264° |
| 2026-05-06 11:25 | 41.80401 | 12.19094 | 37990 ft | 400 kts | 266° |
| 2026-05-06 11:26 | 41.80427 | 12.11660 | 37985 ft | 399 kts | 266° |
| 2026-05-06 11:26 | 41.80446 | 12.04272 | 37986 ft | 399 kts | 266° |
| 2026-05-06 11:27 | 41.80463 | 11.96853 | 37981 ft | 399 kts | 265° |
| 2026-05-06 11:27 | 41.80471 | 11.89454 | 37978 ft | 399 kts | 266° |
| 2026-05-06 11:28 | 41.80475 | 11.82054 | 37971 ft | 398 kts | 265° |
| 2026-05-06 11:28 | 41.80475 | 11.74608 | 37965 ft | 400 kts | 265° |
| 2026-05-06 11:29 | 41.80487 | 11.67204 | 37964 ft | 399 kts | 265° |
| 2026-05-06 11:29 | 41.80508 | 11.59799 | 37960 ft | 400 kts | 266° |
| 2026-05-06 11:30 | 41.80523 | 11.52311 | 37959 ft | 401 kts | 265° |
| 2026-05-06 11:30 | 41.80528 | 11.44887 | 37954 ft | 400 kts | 265° |
| 2026-05-06 11:31 | 41.80530 | 11.37430 | 37599 ft | 402 kts | 265° |
| 2026-05-06 11:31 | 41.80530 | 11.33707 | 37093 ft | 400 kts | 264° |
| 2026-05-06 11:31 | 41.80518 | 11.29985 | 36583 ft | 400 kts | 264° |
| 2026-05-06 11:31 | 41.80500 | 11.26304 | 36136 ft | 397 kts | 263° |
| 2026-05-06 11:32 | 41.80479 | 11.22628 | 35587 ft | 396 kts | 264° |
| 2026-05-06 11:32 | 41.80456 | 11.18962 | 34990 ft | 396 kts | 263° |
| 2026-05-06 11:32 | 41.80433 | 11.15269 | 34336 ft | 396 kts | 263° |
| 2026-05-06 11:32 | 41.80405 | 11.11607 | 33636 ft | 395 kts | 263° |
| 2026-05-06 11:33 | 41.80380 | 11.07932 | 32977 ft | 393 kts | 263° |
| 2026-05-06 11:33 | 41.80365 | 11.04301 | 32344 ft | 392 kts | 264° |
| 2026-05-06 11:33 | 41.80348 | 11.00674 | 31704 ft | 392 kts | 264° |
| 2026-05-06 11:33 | 41.80330 | 10.97028 | 31041 ft | 395 kts | 264° |
| 2026-05-06 11:34 | 41.80310 | 10.93353 | 30481 ft | 391 kts | 264° |
| 2026-05-06 11:34 | 41.80291 | 10.89769 | 30089 ft | 387 kts | 264° |
| 2026-05-06 11:34 | 41.80271 | 10.86173 | 29684 ft | 386 kts | 264° |
| 2026-05-06 11:34 | 41.80249 | 10.82592 | 29248 ft | 383 kts | 264° |
| 2026-05-06 11:35 | 41.80225 | 10.79039 | 28760 ft | 380 kts | 264° |
| 2026-05-06 11:35 | 41.80202 | 10.75530 | 28278 ft | 377 kts | 264° |
| 2026-05-06 11:35 | 41.80177 | 10.72072 | 27782 ft | 374 kts | 264° |
| 2026-05-06 11:35 | 41.80151 | 10.68617 | 27290 ft | 370 kts | 265° |
| 2026-05-06 11:36 | 41.80124 | 10.65215 | 26802 ft | 367 kts | 265° |
| 2026-05-06 11:36 | 41.80097 | 10.61789 | 26304 ft | 363 kts | 265° |
| 2026-05-06 11:36 | 41.80067 | 10.58433 | 25811 ft | 360 kts | 265° |
| 2026-05-06 11:36 | 41.80037 | 10.55118 | 25317 ft | 357 kts | 265° |
| 2026-05-06 11:37 | 41.80008 | 10.51823 | 24831 ft | 355 kts | 265° |
| 2026-05-06 11:37 | 41.79977 | 10.48541 | 24351 ft | 352 kts | 265° |
| 2026-05-06 11:37 | 41.79945 | 10.45276 | 23869 ft | 350 kts | 265° |
| 2026-05-06 11:37 | 41.79912 | 10.42044 | 23409 ft | 348 kts | 265° |
| 2026-05-06 11:38 | 41.79879 | 10.38823 | 22943 ft | 347 kts | 265° |
| 2026-05-06 11:38 | 41.79845 | 10.35619 | 22476 ft | 346 kts | 265° |
| 2026-05-06 11:38 | 41.79809 | 10.32389 | 22025 ft | 344 kts | 265° |
| 2026-05-06 11:38 | 41.79773 | 10.29182 | 21584 ft | 342 kts | 265° |
| 2026-05-06 11:39 | 41.79738 | 10.26037 | 21137 ft | 341 kts | 265° |
| 2026-05-06 11:39 | 41.79700 | 10.22868 | 20682 ft | 341 kts | 265° |
| 2026-05-06 11:39 | 41.79661 | 10.19673 | 20230 ft | 340 kts | 265° |
| 2026-05-06 11:39 | 41.79624 | 10.16535 | 19787 ft | 339 kts | 265° |
| 2026-05-06 11:40 | 41.79584 | 10.13393 | 19336 ft | 338 kts | 265° |
| 2026-05-06 11:40 | 41.79543 | 10.10258 | 18893 ft | 337 kts | 265° |
| 2026-05-06 11:40 | 41.79502 | 10.07161 | 18458 ft | 336 kts | 265° |
| 2026-05-06 11:40 | 41.79460 | 10.04050 | 18025 ft | 334 kts | 266° |
| 2026-05-06 11:41 | 41.79419 | 10.00953 | 17594 ft | 333 kts | 265° |
| 2026-05-06 11:41 | 41.79376 | 9.97865 | 17160 ft | 332 kts | 266° |
| 2026-05-06 11:41 | 41.79332 | 9.94763 | 16721 ft | 330 kts | 266° |
| 2026-05-06 11:41 | 41.79288 | 9.91709 | 16280 ft | 329 kts | 266° |
| 2026-05-06 11:42 | 41.79243 | 9.88667 | 15856 ft | 327 kts | 266° |
| 2026-05-06 11:42 | 41.79196 | 9.85646 | 15419 ft | 326 kts | 266° |
| 2026-05-06 11:42 | 41.79150 | 9.82635 | 14978 ft | 325 kts | 266° |
| 2026-05-06 11:42 | 41.79102 | 9.79632 | 14565 ft | 323 kts | 266° |
| 2026-05-06 11:43 | 41.79054 | 9.76643 | 14139 ft | 322 kts | 266° |
| 2026-05-06 11:43 | 41.79006 | 9.73633 | 13768 ft | 318 kts | 266° |
| 2026-05-06 11:43 | 41.78958 | 9.70686 | 13765 ft | 318 kts | 266° |
| 2026-05-06 11:44 | 41.78859 | 9.64762 | 13805 ft | 318 kts | 266° |
| 2026-05-06 11:44 | 41.78807 | 9.61826 | 13836 ft | 318 kts | 266° |
| 2026-05-06 11:44 | 41.78754 | 9.58876 | 13861 ft | 319 kts | 266° |
| 2026-05-06 11:44 | 41.78701 | 9.55888 | 13856 ft | 318 kts | 266° |
| 2026-05-06 11:45 | 41.78648 | 9.52951 | 13874 ft | 317 kts | 266° |
| 2026-05-06 11:45 | 41.78592 | 9.49964 | 13897 ft | 317 kts | 266° |
| 2026-05-06 11:45 | 41.78537 | 9.47043 | 13898 ft | 316 kts | 266° |
| 2026-05-06 11:45 | 41.78480 | 9.44088 | 13910 ft | 316 kts | 266° |
| 2026-05-06 11:46 | 41.78423 | 9.41148 | 13917 ft | 316 kts | 266° |
| 2026-05-06 11:46 | 41.78365 | 9.38206 | 13927 ft | 316 kts | 266° |
| 2026-05-06 11:46 | 41.78307 | 9.35260 | 13921 ft | 317 kts | 266° |
| 2026-05-06 11:46 | 41.78248 | 9.32322 | 13932 ft | 316 kts | 265° |
| 2026-05-06 11:47 | 41.78189 | 9.29392 | 13937 ft | 315 kts | 265° |
| 2026-05-06 11:47 | 41.78129 | 9.26469 | 13946 ft | 315 kts | 265° |
| 2026-05-06 11:47 | 41.78068 | 9.23537 | 13953 ft | 316 kts | 265° |
| 2026-05-06 11:47 | 41.78007 | 9.20599 | 13947 ft | 316 kts | 265° |
| 2026-05-06 11:48 | 41.77943 | 9.17660 | 13945 ft | 316 kts | 265° |
| 2026-05-06 11:48 | 41.77879 | 9.14734 | 13950 ft | 316 kts | 265° |
| 2026-05-06 11:48 | 41.77815 | 9.11779 | 13951 ft | 316 kts | 265° |
| 2026-05-06 11:48 | 41.77749 | 9.08848 | 13952 ft | 314 kts | 265° |
| 2026-05-06 11:49 | 41.77685 | 9.05956 | 13956 ft | 314 kts | 265° |
| 2026-05-06 11:49 | 41.77617 | 9.03000 | 13934 ft | 314 kts | 265° |
| 2026-05-06 11:49 | 41.77551 | 9.00111 | 13610 ft | 315 kts | 265° |
| 2026-05-06 11:49 | 41.77481 | 8.97173 | 13102 ft | 315 kts | 265° |
| 2026-05-06 11:50 | 41.77412 | 8.94248 | 12634 ft | 313 kts | 266° |
| 2026-05-06 11:50 | 41.77343 | 8.91359 | 12174 ft | 311 kts | 266° |
| 2026-05-06 11:50 | 41.77282 | 8.88482 | 11725 ft | 308 kts | 266° |
| 2026-05-06 11:50 | 41.77224 | 8.85654 | 11301 ft | 306 kts | 266° |
| 2026-05-06 11:51 | 41.77164 | 8.82799 | 10864 ft | 303 kts | 266° |
| 2026-05-06 11:51 | 41.77104 | 8.80020 | 10446 ft | 300 kts | 266° |
| 2026-05-06 11:51 | 41.77046 | 8.77272 | 10271 ft | 287 kts | 266° |
| 2026-05-06 11:51 | 41.76983 | 8.74681 | 10149 ft | 275 kts | 266° |
| 2026-05-06 11:52 | 41.76917 | 8.72151 | 10021 ft | 264 kts | 266° |
| 2026-05-06 11:52 | 41.76852 | 8.69747 | 9736 ft | 258 kts | 266° |
| 2026-05-06 11:52 | 41.76787 | 8.67382 | 9480 ft | 253 kts | 266° |
| 2026-05-06 11:52 | 41.76723 | 8.65047 | 9194 ft | 249 kts | 266° |
| 2026-05-06 11:53 | 41.76658 | 8.62741 | 8923 ft | 245 kts | 266° |
| 2026-05-06 11:53 | 41.76595 | 8.60491 | 8665 ft | 241 kts | 266° |
| 2026-05-06 11:53 | 41.76533 | 8.58269 | 8353 ft | 240 kts | 266° |
| 2026-05-06 11:53 | 41.76470 | 8.56049 | 8061 ft | 238 kts | 266° |
| 2026-05-06 11:54 | 41.76407 | 8.53828 | 7785 ft | 234 kts | 267° |
| 2026-05-06 11:54 | 41.76345 | 8.51699 | 7557 ft | 230 kts | 267° |
| 2026-05-06 11:54 | 41.76284 | 8.49556 | 7348 ft | 226 kts | 267° |
| 2026-05-06 11:54 | 41.76225 | 8.47474 | 7121 ft | 223 kts | 266° |
| 2026-05-06 11:55 | 41.75930 | 8.45472 | 6865 ft | 219 kts | 245° |
| 2026-05-06 11:55 | 41.75049 | 8.43839 | 6583 ft | 220 kts | 223° |
| 2026-05-06 11:55 | 41.73742 | 8.42799 | 6280 ft | 223 kts | 200° |
| 2026-05-06 11:55 | 41.72230 | 8.42304 | 6030 ft | 222 kts | 195° |
| 2026-05-06 11:56 | 41.70721 | 8.41888 | 5802 ft | 218 kts | 194° |
| 2026-05-06 11:56 | 41.69250 | 8.41485 | 5592 ft | 214 kts | 195° |
| 2026-05-06 11:56 | 41.67814 | 8.41086 | 5377 ft | 211 kts | 195° |
| 2026-05-06 11:56 | 41.66357 | 8.40897 | 5140 ft | 210 kts | 175° |
| 2026-05-06 11:57 | 41.64988 | 8.41510 | 4923 ft | 211 kts | 151° |
| 2026-05-06 11:57 | 41.63903 | 8.42827 | 4703 ft | 212 kts | 127° |
| 2026-05-06 11:57 | 41.63167 | 8.44503 | 4563 ft | 203 kts | 120° |
| 2026-05-06 11:57 | 41.62529 | 8.46130 | 4338 ft | 198 kts | 119° |
| 2026-05-06 11:58 | 41.62132 | 8.47874 | 4061 ft | 197 kts | 93° |
| 2026-05-06 11:58 | 41.62395 | 8.49667 | 3999 ft | 199 kts | 65° |
| 2026-05-06 11:58 | 41.63134 | 8.51226 | 3989 ft | 199 kts | 53° |
| 2026-05-06 11:58 | 41.63959 | 8.52726 | 3984 ft | 198 kts | 53° |
| 2026-05-06 11:59 | 41.64770 | 8.54195 | 3979 ft | 198 kts | 53° |
| 2026-05-06 11:59 | 41.65581 | 8.55696 | 3980 ft | 198 kts | 53° |
| 2026-05-06 11:59 | 41.66436 | 8.57100 | 3980 ft | 194 kts | 38° |
| 2026-05-06 11:59 | 41.67625 | 8.57823 | 3986 ft | 184 kts | 11° |
| 2026-05-06 12:00 | 41.68878 | 8.58137 | 3978 ft | 183 kts | 7° |
| 2026-05-06 12:00 | 41.70148 | 8.58413 | 3980 ft | 184 kts | 7° |
| 2026-05-06 12:00 | 41.71415 | 8.58693 | 3764 ft | 184 kts | 7° |
| 2026-05-06 12:00 | 41.72678 | 8.58982 | 3495 ft | 183 kts | 8° |
| 2026-05-06 12:01 | 41.73931 | 8.59271 | 3229 ft | 183 kts | 9° |
| 2026-05-06 12:01 | 41.75119 | 8.59858 | 2960 ft | 184 kts | 29° |
| 2026-05-06 12:01 | 41.76156 | 8.60856 | 2697 ft | 184 kts | 38° |
| 2026-05-06 12:01 | 41.77134 | 8.61950 | 2429 ft | 183 kts | 39° |
| 2026-05-06 12:02 | 41.78105 | 8.63028 | 2160 ft | 182 kts | 39° |
| 2026-05-06 12:02 | 41.79027 | 8.64172 | 1899 ft | 180 kts | 44° |
| 2026-05-06 12:02 | 41.79884 | 8.65326 | 1698 ft | 172 kts | 46° |
| 2026-05-06 12:02 | 41.80701 | 8.66516 | 1688 ft | 173 kts | 47° |
| 2026-05-06 12:03 | 41.81503 | 8.67716 | 1684 ft | 173 kts | 49° |
| 2026-05-06 12:03 | 41.82242 | 8.68997 | 1684 ft | 173 kts | 54° |
| 2026-05-06 12:03 | 41.82923 | 8.70315 | 1679 ft | 169 kts | 55° |
| 2026-05-06 12:03 | 41.83565 | 8.71579 | 1659 ft | 162 kts | 56° |
| 2026-05-06 12:04 | 41.84190 | 8.72815 | 1561 ft | 161 kts | 56° |
| 2026-05-06 12:04 | 41.84907 | 8.73969 | 1459 ft | 161 kts | 38° |
| 2026-05-06 12:04 | 41.85836 | 8.74817 | 1366 ft | 160 kts | 38° |
| 2026-05-06 12:04 | 41.86644 | 8.75854 | 1252 ft | 164 kts | 45° |
| 2026-05-06 12:05 | 41.87465 | 8.76911 | 1083 ft | 162 kts | 41° |
| 2026-05-06 12:05 | 41.88359 | 8.77857 | 738 ft | 165 kts | 31° |
| 2026-05-06 12:05 | 41.89405 | 8.78456 | 416 ft | 166 kts | 17° |
| 2026-05-06 12:05 | 41.90465 | 8.79017 | 247 ft | 160 kts | 27° |
| 2026-05-06 12:06 | 41.91442 | 8.79664 | 35 ft | 149 kts | 23° |
| 2026-05-06 12:06 | 41.92160 | 8.80098 | 34 ft | 65 kts | 22° |
| 2026-05-06 12:06 | 41.92356 | 8.80221 | 35 ft | 15 kts | 4° |
| 2026-05-06 12:06 | 41.92398 | 8.80104 | 35 ft | 16 kts | 274° |
| 2026-05-06 12:07 | 41.92401 | 8.79951 | 35 ft | 16 kts | 255° |
| 2026-05-06 12:07 | 41.92308 | 8.79863 | 35 ft | 16 kts | 202° |
| 2026-05-06 12:07 | 41.92205 | 8.79802 | 35 ft | 14 kts | 207° |
| 2026-05-06 12:07 | 41.92165 | 8.79723 | 35 ft | 12 kts | 333° |
| 2026-05-06 12:08 | 41.92199 | 8.79708 | 35 ft | 0 kts | 346° |